Time;durP1;ratioP1;P1;durP2;ratioP2;P2;SDS_P1;SDS_P2;PMS_P1;PMS_P2;Temp;Humidity;BMP_temperature;BMP_pressure;BME280_temperature;BME280_humidity;BME280_pressure;Samples;Min_cycle;Max_cycle;Signal;HPM_P1;HPM_P2
2020/12/14 00:01:41;;;;;;;4.55;3.13;;;6.30;99.90;;;;;;5034198;28;20204;-74
2020/12/14 00:04:07;;;;;;;3.60;2.90;;;6.20;99.90;;;;;;5035142;28;20224;-74
2020/12/14 00:06:34;;;;;;;5.45;3.28;;;6.10;99.90;;;;;;5034346;28;20232;-74
2020/12/14 00:09:00;;;;;;;5.45;3.10;;;5.90;99.90;;;;;;5034370;28;20239;-74
2020/12/14 00:11:35;;;;;;;4.10;3.00;;;5.80;99.90;;;;;;5034855;28;20573;-74
2020/12/14 00:14:01;;;;;;;5.60;3.50;;;5.70;99.90;;;;;;5034963;28;20234;-74
2020/12/14 00:16:29;;;;;;;4.15;3.03;;;5.80;99.90;;;;;;5035065;28;20204;-75
2020/12/14 00:18:55;;;;;;;5.80;3.20;;;5.80;99.90;;;;;;5034372;28;20204;-74
2020/12/14 00:21:21;;;;;;;3.13;2.08;;;5.80;99.90;;;;;;5034373;28;20230;-74
2020/12/14 00:23:51;;;;;;;3.28;2.45;;;5.80;99.90;;;;;;5035335;28;20215;-74
2020/12/14 00:26:17;;;;;;;4.35;2.50;;;5.80;99.90;;;;;;5034540;28;20298;-74
2020/12/14 00:28:47;;;;;;;4.95;2.03;;;5.80;99.90;;;;;;5034402;28;20200;-74
2020/12/14 00:31:14;;;;;;;3.90;2.60;;;5.80;99.90;;;;;;5034560;28;20238;-74
2020/12/14 00:33:41;;;;;;;4.50;2.92;;;5.80;99.90;;;;;;5034575;28;20310;-74
2020/12/14 00:36:08;;;;;;;3.13;2.83;;;5.80;99.90;;;;;;5035000;28;20211;-74
2020/12/14 00:38:34;;;;;;;4.75;3.13;;;5.80;99.90;;;;;;5035128;28;20204;-75
2020/12/14 00:41:00;;;;;;;6.45;3.13;;;5.90;99.90;;;;;;5034731;28;20207;-74
2020/12/14 00:43:27;;;;;;;3.78;2.85;;;5.80;99.90;;;;;;5034885;28;20236;-74
2020/12/14 00:45:53;;;;;;;4.82;3.08;;;5.70;99.90;;;;;;5034859;28;20753;-74
2020/12/14 00:48:19;;;;;;;3.80;2.78;;;5.70;99.90;;;;;;5034763;28;20204;-75
2020/12/14 00:50:47;;;;;;;6.55;2.83;;;5.70;99.90;;;;;;5034203;28;20701;-74
2020/12/14 00:53:13;;;;;;;4.03;3.30;;;5.80;99.90;;;;;;5034548;28;20582;-74
2020/12/14 00:55:40;;;;;;;3.72;2.80;;;5.80;99.90;;;;;;5034682;28;20634;-74
2020/12/14 00:58:06;;;;;;;6.55;3.10;;;5.70;99.90;;;;;;5034628;28;20535;-74
2020/12/14 01:00:32;;;;;;;4.72;3.15;;;5.70;99.90;;;;;;5034525;28;20211;-75
2020/12/14 01:02:59;;;;;;;4.82;3.35;;;5.70;99.90;;;;;;5034674;28;20220;-75
2020/12/14 01:05:25;;;;;;;8.13;3.40;;;5.70;99.90;;;;;;5035452;28;20214;-74
2020/12/14 01:07:52;;;;;;;4.57;2.92;;;5.70;99.90;;;;;;5037846;28;20204;-74
2020/12/14 01:10:18;;;;;;;4.07;3.67;;;5.60;99.90;;;;;;5037951;28;20224;-74
2020/12/14 01:12:45;;;;;;;5.50;3.00;;;5.50;99.90;;;;;;5038049;28;20228;-74
2020/12/14 01:15:11;;;;;;;3.92;2.78;;;5.50;99.90;;;;;;5038391;28;20196;-74
2020/12/14 01:17:37;;;;;;;5.55;3.33;;;5.60;99.90;;;;;;5037561;28;20211;-74
2020/12/14 01:20:04;;;;;;;3.97;2.65;;;5.60;99.90;;;;;;5037961;28;20200;-74
2020/12/14 01:22:30;;;;;;;5.25;2.78;;;5.70;99.90;;;;;;5037419;28;20318;-74
2020/12/14 01:24:57;;;;;;;6.13;3.28;;;5.70;99.90;;;;;;5037561;28;20670;-74
2020/12/14 01:27:23;;;;;;;6.03;3.00;;;5.60;99.90;;;;;;5037364;28;20204;-74
2020/12/14 01:29:50;;;;;;;3.50;2.45;;;5.70;99.90;;;;;;5037960;28;20230;-74
2020/12/14 01:32:16;;;;;;;5.70;3.00;;;5.70;99.90;;;;;;5037154;28;20212;-74
2020/12/14 01:34:42;;;;;;;5.45;3.35;;;5.80;99.90;;;;;;5037499;28;20204;-74
2020/12/14 01:37:08;;;;;;;5.45;2.85;;;5.70;99.90;;;;;;5037986;28;20204;-74
2020/12/14 01:39:35;;;;;;;4.28;2.72;;;5.70;99.90;;;;;;5037503;28;20212;-74
2020/12/14 01:42:02;;;;;;;4.57;3.00;;;5.60;99.90;;;;;;5037933;28;20677;-75
2020/12/14 01:44:28;;;;;;;5.13;3.30;;;5.60;99.90;;;;;;5037158;28;20589;-74
2020/12/14 01:46:59;;;;;;;7.57;3.65;;;5.60;99.90;;;;;;5036961;28;20295;-74
2020/12/14 01:49:25;;;;;;;4.38;3.13;;;5.70;99.90;;;;;;5036694;28;20724;-74
2020/12/14 01:51:51;;;;;;;4.55;2.60;;;5.60;99.90;;;;;;5036880;28;20199;-74
2020/12/14 01:54:23;;;;;;;5.28;2.67;;;5.50;99.90;;;;;;5036671;28;20311;-74
2020/12/14 01:56:49;;;;;;;3.92;2.58;;;5.50;99.90;;;;;;5036589;28;20200;-74
2020/12/14 01:59:17;;;;;;;3.13;2.40;;;5.60;99.90;;;;;;5037596;28;20204;-74
2020/12/14 02:01:43;;;;;;;7.05;3.10;;;5.60;99.90;;;;;;5037803;28;20210;-75
2020/12/14 02:04:09;;;;;;;4.15;2.78;;;5.70;99.90;;;;;;5037112;28;20585;-74
2020/12/14 02:06:35;;;;;;;5.20;2.97;;;5.60;99.90;;;;;;5037228;28;20636;-74
2020/12/14 02:09:02;;;;;;;5.97;3.13;;;5.70;99.90;;;;;;5036625;28;20224;-74
2020/12/14 02:11:29;;;;;;;4.40;3.20;;;5.80;99.90;;;;;;5036795;28;20599;-74
2020/12/14 02:13:55;;;;;;;5.13;3.13;;;5.80;99.90;;;;;;5036607;28;20224;-74
2020/12/14 02:16:22;;;;;;;5.97;3.00;;;5.80;99.90;;;;;;5036438;28;20200;-74
2020/12/14 02:18:48;;;;;;;5.40;3.00;;;5.80;99.90;;;;;;5037311;28;20201;-74
2020/12/14 02:21:16;;;;;;;4.20;3.25;;;5.80;99.90;;;;;;5037279;28;20727;-74
2020/12/14 02:23:42;;;;;;;4.30;2.17;;;5.80;99.90;;;;;;5037227;28;20224;-74
2020/12/14 02:26:09;;;;;;;5.38;2.92;;;5.70;99.90;;;;;;5037577;28;20204;-74
2020/12/14 02:28:37;;;;;;;3.63;2.70;;;5.70;99.90;;;;;;5038252;28;20287;-74
2020/12/14 02:31:03;;;;;;;5.18;2.95;;;5.50;99.90;;;;;;5036352;28;20589;-74
2020/12/14 02:33:30;;;;;;;6.03;2.97;;;5.50;99.90;;;;;;5036279;28;20235;-74
2020/12/14 02:35:56;;;;;;;5.82;2.95;;;5.50;99.90;;;;;;5035949;28;20685;-74
2020/12/14 02:38:22;;;;;;;4.28;2.78;;;5.50;99.90;;;;;;5036451;28;20208;-74
2020/12/14 02:40:49;;;;;;;4.22;2.97;;;5.50;99.90;;;;;;5035692;28;20204;-74
2020/12/14 02:43:16;;;;;;;4.35;2.83;;;5.50;99.90;;;;;;5035647;28;20224;-74
2020/12/14 02:45:42;;;;;;;4.70;2.67;;;5.50;99.90;;;;;;5035285;28;20234;-73
2020/12/14 02:48:08;;;;;;;6.60;3.08;;;5.50;99.90;;;;;;5035478;28;20637;-73
2020/12/14 02:50:35;;;;;;;3.53;1.80;;;5.60;99.90;;;;;;5035458;28;20232;-74
2020/12/14 02:53:02;;;;;;;3.58;2.05;;;5.60;99.90;;;;;;5035015;28;20243;-74
2020/12/14 02:55:28;;;;;;;4.28;2.67;;;5.50;99.90;;;;;;5035315;28;20208;-74
2020/12/14 02:57:54;;;;;;;4.68;2.45;;;5.50;99.90;;;;;;5035205;28;20215;-74
2020/12/14 03:00:22;;;;;;;3.15;2.30;;;5.50;99.90;;;;;;5035781;28;20200;-74
2020/12/14 03:02:48;;;;;;;6.13;2.40;;;5.40;99.90;;;;;;5035248;28;20230;-74
2020/12/14 03:05:14;;;;;;;4.05;2.55;;;5.50;99.90;;;;;;5035356;28;20211;-73
2020/12/14 03:07:41;;;;;;;3.25;2.25;;;5.30;99.90;;;;;;5035704;28;20200;-74
2020/12/14 03:10:07;;;;;;;4.50;2.22;;;5.20;99.90;;;;;;5034877;28;20223;-74
2020/12/14 03:12:34;;;;;;;3.33;2.25;;;5.20;99.90;;;;;;5035641;28;20224;-74
2020/12/14 03:15:00;;;;;;;4.28;2.80;;;5.20;99.90;;;;;;5034762;28;20291;-74
2020/12/14 03:17:28;;;;;;;10.13;2.97;;;5.20;99.90;;;;;;5035305;28;20200;-74
2020/12/14 03:19:55;;;;;;;4.07;2.53;;;5.20;99.90;;;;;;5035125;28;20294;-74
2020/12/14 03:22:21;;;;;;;6.65;3.28;;;5.10;99.90;;;;;;5035269;28;20219;-74
2020/12/14 03:24:47;;;;;;;7.18;3.38;;;5.00;99.90;;;;;;5034956;28;20204;-74
2020/12/14 03:27:13;;;;;;;7.35;3.95;;;5.10;99.90;;;;;;5034644;28;20540;-74
2020/12/14 03:29:40;;;;;;;7.72;3.20;;;5.10;99.90;;;;;;5034625;28;20224;-74
2020/12/14 03:32:06;;;;;;;6.40;3.80;;;5.10;99.90;;;;;;5035064;28;20581;-74
2020/12/14 03:34:33;;;;;;;6.40;3.28;;;5.00;99.90;;;;;;5034539;28;20220;-73
2020/12/14 03:36:59;;;;;;;4.22;3.05;;;5.00;99.90;;;;;;5034699;28;20310;-74
2020/12/14 03:39:26;;;;;;;6.03;3.47;;;5.00;99.90;;;;;;5034994;28;20271;-74
2020/12/14 03:41:52;;;;;;;7.13;3.25;;;4.80;99.90;;;;;;5034896;28;20216;-74
2020/12/14 03:44:18;;;;;;;6.75;3.80;;;4.80;99.90;;;;;;5035076;28;20220;-74
2020/12/14 03:46:45;;;;;;;6.00;3.03;;;4.80;99.90;;;;;;5034639;28;20204;-74
2020/12/14 03:49:11;;;;;;;5.03;3.60;;;4.90;99.90;;;;;;5034552;28;20204;-74
2020/12/14 03:51:38;;;;;;;5.60;3.30;;;4.90;99.90;;;;;;5034263;28;20774;-74
2020/12/14 03:54:04;;;;;;;4.25;3.38;;;4.90;99.90;;;;;;5034513;28;20662;-74
2020/12/14 03:56:31;;;;;;;4.85;3.50;;;4.80;99.90;;;;;;5034378;28;20295;-74
2020/12/14 03:58:58;;;;;;;5.55;2.97;;;4.80;99.90;;;;;;5034215;28;20204;-74
2020/12/14 04:01:26;;;;;;;5.25;2.88;;;5.00;99.90;;;;;;5034400;28;20800;-74
2020/12/14 04:03:53;;;;;;;4.45;2.75;;;5.10;99.90;;;;;;5034467;28;20243;-74
2020/12/14 04:06:20;;;;;;;4.60;3.28;;;5.10;99.90;;;;;;5034079;28;20215;-73
2020/12/14 04:08:48;;;;;;;5.55;2.90;;;5.10;99.90;;;;;;5034014;28;20204;-74
2020/12/14 04:11:15;;;;;;;5.95;2.40;;;5.10;99.90;;;;;;5034272;28;20731;-74
2020/12/14 04:13:41;;;;;;;5.85;3.00;;;5.10;99.90;;;;;;5034258;28;20227;-74
2020/12/14 04:16:08;;;;;;;4.65;3.20;;;5.10;99.90;;;;;;5034100;28;20204;-74
2020/12/14 04:18:35;;;;;;;3.92;2.95;;;5.10;99.90;;;;;;5034173;28;20294;-74
2020/12/14 04:21:02;;;;;;;5.22;3.15;;;5.10;99.90;;;;;;5034613;28;20207;-74
2020/12/14 04:23:28;;;;;;;4.53;2.70;;;5.10;99.90;;;;;;5034344;28;20223;-74
2020/12/14 04:25:55;;;;;;;6.65;3.60;;;5.10;99.90;;;;;;5034530;28;20620;-74
2020/12/14 04:28:21;;;;;;;5.57;3.40;;;5.10;99.90;;;;;;5035099;28;20200;-74
2020/12/14 04:30:48;;;;;;;5.15;3.45;;;5.00;99.90;;;;;;5033751;28;20228;-74
2020/12/14 04:33:14;;;;;;;5.00;3.30;;;4.90;99.90;;;;;;5033561;28;20228;-74
2020/12/14 04:35:40;;;;;;;4.32;3.10;;;5.00;99.90;;;;;;5033514;28;20294;-73
2020/12/14 04:38:07;;;;;;;5.90;2.75;;;5.10;99.90;;;;;;5033821;28;20204;-74
2020/12/14 04:40:33;;;;;;;4.93;2.53;;;5.00;99.90;;;;;;5035326;28;20204;-74
2020/12/14 04:43:01;;;;;;;4.32;2.60;;;5.10;99.90;;;;;;5037428;28;20235;-74
2020/12/14 04:45:27;;;;;;;4.38;2.72;;;5.10;99.90;;;;;;5037300;28;20200;-73
2020/12/14 04:47:55;;;;;;;3.97;2.47;;;5.10;99.90;;;;;;5037469;28;20210;-74
2020/12/14 04:50:23;;;;;;;4.38;1.98;;;5.00;99.90;;;;;;5037298;28;20223;-73
2020/12/14 04:52:50;;;;;;;4.97;2.50;;;5.00;99.90;;;;;;5037346;28;20224;-74
2020/12/14 04:55:20;;;;;;;5.20;2.30;;;5.00;99.90;;;;;;5036805;28;20207;-74
2020/12/14 04:57:46;;;;;;;4.10;2.35;;;5.00;99.90;;;;;;5037420;28;20215;-74
2020/12/14 05:00:14;;;;;;;3.10;2.10;;;5.00;99.90;;;;;;5037160;28;20204;-74
2020/12/14 05:02:41;;;;;;;3.88;2.20;;;4.90;99.90;;;;;;5037152;28;20228;-74
2020/12/14 05:05:11;;;;;;;3.42;1.80;;;4.80;99.90;;;;;;5037683;28;20211;-73
2020/12/14 05:07:42;;;;;;;3.92;2.25;;;4.80;99.90;;;;;;5036837;28;20211;-73
2020/12/14 05:10:08;;;;;;;5.43;2.53;;;4.80;99.90;;;;;;5036872;28;20218;-73
2020/12/14 05:12:40;;;;;;;3.20;2.35;;;4.80;99.90;;;;;;5036780;28;20224;-73
2020/12/14 05:15:18;;;;;;;4.85;2.13;;;4.70;99.90;;;;;;5037178;28;20199;-73
2020/12/14 05:17:44;;;;;;;3.38;2.45;;;4.70;99.90;;;;;;5037287;28;20203;-74
2020/12/14 05:20:15;;;;;;;2.80;2.10;;;4.70;99.90;;;;;;5037258;28;20200;-74
2020/12/14 05:22:57;;;;;;;3.45;2.22;;;4.70;99.90;;;;;;5037210;28;20224;-73
2020/12/14 05:25:23;;;;;;;3.83;2.28;;;4.60;99.90;;;;;;5035476;28;20321;-73
2020/12/14 05:28:00;;;;;;;3.70;2.20;;;4.70;99.90;;;;;;5036728;28;20204;-73
2020/12/14 05:30:37;;;;;;;2.42;1.95;;;4.60;99.90;;;;;;5037200;28;20234;-74
2020/12/14 05:33:04;;;;;;;5.13;2.55;;;4.50;99.90;;;;;;5037576;28;20223;-74
2020/12/14 05:35:32;;;;;;;3.10;2.40;;;4.50;99.90;;;;;;5037285;28;20651;-74
2020/12/14 05:38:26;;;;;;;4.97;2.70;;;4.40;99.90;;;;;;5037637;28;20201;-74
2020/12/14 05:40:55;;;;;;;5.10;2.65;;;4.50;99.90;;;;;;5037426;28;20196;-74
2020/12/14 05:43:23;;;;;;;5.30;2.38;;;4.50;99.90;;;;;;5037091;28;20319;-74
2020/12/14 05:45:52;;;;;;;4.07;2.30;;;4.50;99.90;;;;;;5036122;28;20240;-73
2020/12/14 05:48:30;;;;;;;5.65;2.45;;;4.50;99.90;;;;;;5036608;28;20219;-74
2020/12/14 05:50:59;;;;;;;4.15;2.50;;;4.50;99.90;;;;;;5036059;28;20226;-74
2020/12/14 05:53:33;;;;;;;3.95;2.45;;;4.50;99.90;;;;;;5035817;28;20230;-74
2020/12/14 05:56:00;;;;;;;4.38;2.20;;;4.60;99.90;;;;;;5037001;28;20188;-73
2020/12/14 05:58:30;;;;;;;3.50;2.70;;;4.60;99.90;;;;;;5036141;28;20204;-73
2020/12/14 06:00:57;;;;;;;5.32;2.75;;;4.50;99.90;;;;;;5036320;28;20204;-73
2020/12/14 06:03:24;;;;;;;4.80;2.40;;;4.60;99.90;;;;;;5036194;28;20226;-73
2020/12/14 06:05:58;;;;;;;4.05;2.97;;;4.50;99.90;;;;;;5036064;28;20210;-74
2020/12/14 06:09:02;;;;;;;3.67;2.10;;;4.50;99.90;;;;;;5036621;28;20266;-74
2020/12/14 06:11:29;;;;;;;3.25;2.45;;;4.50;99.90;;;;;;5036219;28;20223;-74
2020/12/14 06:13:57;;;;;;;4.80;2.45;;;4.50;99.90;;;;;;5036408;28;20230;-74
2020/12/14 06:16:25;;;;;;;4.03;2.75;;;4.50;99.90;;;;;;5036289;28;20204;-73
2020/12/14 06:18:53;;;;;;;3.75;2.30;;;4.40;99.90;;;;;;5036348;28;20733;-73
2020/12/14 06:21:21;;;;;;;4.82;2.60;;;4.30;99.90;;;;;;5036367;28;20203;-74
2020/12/14 06:23:50;;;;;;;4.82;3.22;;;4.30;99.90;;;;;;5035859;28;20230;-74
2020/12/14 06:26:17;;;;;;;2.95;2.33;;;4.30;99.90;;;;;;5036002;28;20207;-73
2020/12/14 06:28:50;;;;;;;6.68;3.00;;;4.30;99.90;;;;;;5036016;28;20200;-74
2020/12/14 06:31:31;;;;;;;4.93;2.38;;;4.30;99.90;;;;;;5035726;28;20314;-74
2020/12/14 06:33:58;;;;;;;3.08;2.70;;;4.30;99.90;;;;;;5035770;28;20224;-74
2020/12/14 06:36:25;;;;;;;3.38;2.15;;;4.30;99.90;;;;;;5035652;28;20203;-74
2020/12/14 06:38:52;;;;;;;3.58;2.28;;;4.20;99.90;;;;;;5035852;28;20294;-74
2020/12/14 06:41:20;;;;;;;5.47;2.70;;;4.30;99.90;;;;;;5035848;28;20596;-74
2020/12/14 06:43:49;;;;;;;4.50;2.92;;;4.20;99.90;;;;;;5035618;28;20231;-74
2020/12/14 06:46:26;;;;;;;3.75;2.53;;;4.30;99.90;;;;;;5035241;28;20208;-74
2020/12/14 06:48:54;;;;;;;4.55;2.95;;;4.30;99.90;;;;;;5036094;28;20242;-74
2020/12/14 06:51:21;;;;;;;5.25;3.05;;;4.30;99.90;;;;;;5035463;28;20228;-74
2020/12/14 06:53:50;;;;;;;5.28;2.63;;;4.40;99.90;;;;;;5034957;28;20255;-74
2020/12/14 06:56:38;;;;;;;9.20;2.97;;;4.40;99.90;;;;;;5035144;28;20287;-74
2020/12/14 06:59:28;;;;;;;3.60;2.70;;;4.20;99.90;;;;;;5035045;28;20694;-74
2020/12/14 07:01:56;;;;;;;2.80;2.50;;;4.20;99.90;;;;;;5035120;28;20291;-74
2020/12/14 07:04:41;;;;;;;6.32;4.25;;;4.10;99.90;;;;;;5034893;28;20228;-74
2020/12/14 07:07:32;;;;;;;3.95;2.65;;;4.10;99.90;;;;;;5035190;28;20208;-74
2020/12/14 07:10:15;;;;;;;5.28;2.72;;;4.10;99.90;;;;;;5029741;28;20713;-74
2020/12/14 07:12:42;;;;;;;5.57;3.08;;;4.20;99.90;;;;;;5034941;28;20745;-74
2020/12/14 07:15:26;;;;;;;5.88;2.50;;;4.20;99.90;;;;;;5034991;28;20212;-74
2020/12/14 07:18:14;;;;;;;6.65;2.38;;;4.20;99.90;;;;;;5034853;28;20208;-74
2020/12/14 07:21:03;;;;;;;5.82;3.42;;;4.30;99.90;;;;;;5033281;28;20295;-74
2020/12/14 07:23:31;;;;;;;6.70;4.10;;;4.30;99.90;;;;;;5034705;28;20315;-74
2020/12/14 07:25:58;;;;;;;5.32;3.45;;;4.30;99.90;;;;;;5034840;28;20200;-73
2020/12/14 07:28:34;;;;;;;11.10;4.88;;;4.10;99.90;;;;;;5034395;28;20296;-74
2020/12/14 07:31:05;;;;;;;8.10;3.95;;;4.20;99.90;;;;;;5034921;28;20234;-75
2020/12/14 07:33:31;;;;;;;11.25;4.47;;;4.20;99.90;;;;;;5035350;28;20251;-74
2020/12/14 07:36:06;;;;;;;8.57;4.28;;;4.20;99.90;;;;;;5035405;28;20203;-74
2020/12/14 07:38:33;;;;;;;7.32;4.00;;;4.30;99.90;;;;;;5035350;28;20634;-75
2020/12/14 07:41:06;;;;;;;4.22;2.67;;;4.20;99.90;;;;;;5035710;28;20654;-74
2020/12/14 07:43:45;;;;;;;5.85;3.08;;;4.20;99.90;;;;;;5035670;28;20220;-75
2020/12/14 07:46:22;;;;;;;4.70;3.08;;;4.40;99.90;;;;;;5035777;28;20279;-74
2020/12/14 07:49:03;;;;;;;7.85;3.00;;;4.30;99.90;;;;;;5035649;28;20196;-74
2020/12/14 07:51:31;;;;;;;6.90;3.58;;;4.40;99.90;;;;;;5035375;28;20224;-74
2020/12/14 07:54:08;;;;;;;5.95;3.70;;;4.30;99.90;;;;;;5035150;28;20219;-74
2020/12/14 07:56:58;;;;;;;5.40;3.72;;;4.30;99.90;;;;;;5034989;28;20210;-74
2020/12/14 07:59:25;;;;;;;6.43;3.75;;;4.40;99.90;;;;;;5033925;28;20295;-75
2020/12/14 08:01:52;;;;;;;7.70;4.50;;;4.30;99.90;;;;;;5035078;28;20235;-74
2020/12/14 08:04:23;;;;;;;5.18;3.75;;;4.50;99.90;;;;;;5035573;28;20224;-74
2020/12/14 08:06:51;;;;;;;6.65;4.57;;;4.40;99.90;;;;;;5035386;28;20210;-74
2020/12/14 08:09:24;;;;;;;5.18;3.60;;;4.30;99.90;;;;;;5035658;28;20709;-74
2020/12/14 08:11:51;;;;;;;7.82;4.20;;;4.40;99.90;;;;;;5036135;28;20235;-74
2020/12/14 08:14:18;;;;;;;13.93;4.70;;;4.50;99.90;;;;;;5034406;28;20220;-74
2020/12/14 08:16:45;;;;;;;9.38;4.60;;;4.50;99.90;;;;;;5034437;28;20299;-74
2020/12/14 08:19:16;;;;;;;8.65;4.50;;;4.60;99.90;;;;;;5034966;28;20235;-74
2020/12/14 08:21:42;;;;;;;10.82;5.28;;;4.60;99.90;;;;;;5034879;28;20203;-74
2020/12/14 08:24:10;;;;;;;13.57;3.92;;;4.70;99.90;;;;;;5034351;28;20267;-74
2020/12/14 08:26:38;;;;;;;6.18;4.13;;;4.80;99.90;;;;;;5034166;28;20263;-74
2020/12/14 08:29:04;;;;;;;5.25;3.67;;;4.80;99.90;;;;;;5034642;28;20212;-75
2020/12/14 08:31:31;;;;;;;6.68;3.97;;;4.70;99.90;;;;;;5033938;28;20238;-74
2020/12/14 08:33:57;;;;;;;8.63;4.22;;;4.60;99.90;;;;;;5033928;28;20227;-74
2020/12/14 08:36:24;;;;;;;6.25;4.32;;;4.60;99.90;;;;;;5034022;28;20567;-74
2020/12/14 08:38:52;;;;;;;7.97;4.25;;;4.60;99.90;;;;;;5033891;28;20207;-74
2020/12/14 08:41:21;;;;;;;8.80;4.35;;;4.50;99.90;;;;;;5033461;28;20226;-74
2020/12/14 08:43:48;;;;;;;8.38;4.50;;;4.60;99.90;;;;;;5033767;28;20223;-74
2020/12/14 08:46:16;;;;;;;5.45;3.42;;;4.60;99.90;;;;;;5033722;28;20231;-74
2020/12/14 08:48:47;;;;;;;9.50;4.35;;;4.60;99.90;;;;;;5033588;28;20734;-75
2020/12/14 08:51:15;;;;;;;7.20;3.83;;;4.70;99.90;;;;;;5033826;28;20262;-74
2020/12/14 08:53:43;;;;;;;8.30;4.32;;;4.80;99.90;;;;;;5033835;28;20224;-74
2020/12/14 08:56:11;;;;;;;9.13;5.18;;;4.80;99.90;;;;;;5033826;28;20291;-74
2020/12/14 08:58:51;;;;;;;8.25;4.78;;;4.80;99.90;;;;;;5033705;28;20204;-74
2020/12/14 09:01:20;;;;;;;6.30;4.72;;;4.80;99.90;;;;;;5033729;28;20246;-74
2020/12/14 09:03:49;;;;;;;6.32;4.15;;;4.90;99.90;;;;;;5033829;28;20564;-74
2020/12/14 09:06:23;;;;;;;5.68;4.25;;;4.90;99.90;;;;;;5033405;28;20200;-74
2020/12/14 09:09:07;;;;;;;8.80;4.53;;;4.90;99.90;;;;;;5033617;28;20211;-74
2020/12/14 09:11:35;;;;;;;9.90;4.25;;;4.80;99.90;;;;;;5033372;28;20702;-74
2020/12/14 09:14:04;;;;;;;7.40;4.30;;;4.70;99.90;;;;;;5033538;28;20220;-74
2020/12/14 09:16:31;;;;;;;10.07;4.82;;;4.70;99.90;;;;;;5033514;28;20214;-74
2020/12/14 09:18:58;;;;;;;5.97;4.20;;;4.60;99.90;;;;;;5033221;28;20210;-74
2020/12/14 09:21:24;;;;;;;8.05;5.03;;;4.80;99.90;;;;;;5033454;28;20211;-74
2020/12/14 09:24:15;;;;;;;8.40;4.55;;;4.80;99.90;;;;;;5033466;28;20223;-74
2020/12/14 09:26:41;;;;;;;10.77;5.22;;;4.90;99.90;;;;;;5035193;28;20215;-74
2020/12/14 09:29:09;;;;;;;7.65;4.45;;;4.90;99.90;;;;;;5036966;28;20658;-74
2020/12/14 09:31:36;;;;;;;9.38;5.53;;;5.00;99.90;;;;;;5036634;28;20255;-74
2020/12/14 09:34:02;;;;;;;8.68;5.43;;;4.90;99.90;;;;;;5036797;28;20230;-74
2020/12/14 09:36:28;;;;;;;9.88;5.20;;;5.10;99.90;;;;;;5036389;28;20208;-74
2020/12/14 09:38:55;;;;;;;8.80;5.40;;;5.20;99.90;;;;;;5036651;28;20749;-74
2020/12/14 09:41:23;;;;;;;10.65;6.10;;;5.20;99.90;;;;;;5036601;28;20294;-74
2020/12/14 09:43:49;;;;;;;9.88;5.57;;;5.30;99.90;;;;;;5036660;28;20226;-74
2020/12/14 09:46:17;;;;;;;11.25;6.40;;;5.30;99.90;;;;;;5036225;28;20204;-74
2020/12/14 09:48:43;;;;;;;15.73;5.80;;;5.30;99.90;;;;;;5036370;28;20203;-74
2020/12/14 09:51:09;;;;;;;8.25;5.32;;;5.40;99.90;;;;;;5036451;28;20224;-74
2020/12/14 09:53:36;;;;;;;7.95;4.47;;;5.50;99.90;;;;;;5036147;28;20559;-74
2020/12/14 09:56:02;;;;;;;10.02;5.43;;;5.50;99.90;;;;;;5036333;28;20565;-74
2020/12/14 09:58:29;;;;;;;8.48;5.03;;;5.50;99.90;;;;;;5036523;28;20291;-74
2020/12/14 10:00:56;;;;;;;12.70;5.72;;;5.60;99.90;;;;;;5036795;28;20203;-74
2020/12/14 10:03:23;;;;;;;9.52;5.15;;;5.60;99.90;;;;;;5036817;28;20695;-74
2020/12/14 10:05:49;;;;;;;8.30;5.38;;;5.60;99.90;;;;;;5037253;28;20734;-74
2020/12/14 10:08:16;;;;;;;9.68;5.25;;;5.50;99.90;;;;;;5036872;28;20210;-75
2020/12/14 10:10:43;;;;;;;9.57;5.35;;;5.50;99.90;;;;;;5037003;28;20224;-75
2020/12/14 10:13:09;;;;;;;9.40;5.82;;;5.50;99.90;;;;;;5036839;28;20720;-74
2020/12/14 10:15:35;;;;;;;11.85;6.88;;;5.50;99.90;;;;;;5036692;28;20207;-74
2020/12/14 10:18:02;;;;;;;14.20;7.80;;;5.70;99.90;;;;;;5036981;28;20211;-74
2020/12/14 10:20:30;;;;;;;11.88;8.07;;;5.90;99.90;;;;;;5036863;28;20204;-74
2020/12/14 10:22:56;;;;;;;15.35;8.15;;;6.20;99.90;;;;;;5036739;28;20287;-75
2020/12/14 10:25:24;;;;;;;11.50;7.90;;;6.30;99.90;;;;;;5037027;28;20210;-74
2020/12/14 10:27:51;;;;;;;12.77;7.43;;;6.50;99.90;;;;;;5036863;28;20208;-74
2020/12/14 10:30:18;;;;;;;11.32;7.25;;;6.70;99.90;;;;;;5036487;28;20224;-75
2020/12/14 10:32:44;;;;;;;11.55;7.18;;;7.00;99.90;;;;;;5036578;28;20228;-74
2020/12/14 10:35:11;;;;;;;10.38;6.22;;;7.20;99.90;;;;;;5035486;28;20693;-74
2020/12/14 10:37:38;;;;;;;12.63;6.65;;;7.40;99.90;;;;;;5034910;28;20204;-74
2020/12/14 10:40:06;;;;;;;8.82;5.75;;;7.60;99.90;;;;;;5035646;28;20218;-75
2020/12/14 10:42:32;;;;;;;7.75;5.47;;;7.80;99.90;;;;;;5035686;28;20319;-74
2020/12/14 10:44:59;;;;;;;10.32;6.00;;;8.10;99.90;;;;;;5035822;28;20207;-74
2020/12/14 10:47:25;;;;;;;9.15;4.90;;;8.30;99.90;;;;;;5036153;28;20574;-74
2020/12/14 10:49:51;;;;;;;9.75;6.25;;;8.40;99.90;;;;;;5036195;28;20201;-74
2020/12/14 10:52:18;;;;;;;8.02;5.15;;;8.60;99.90;;;;;;5036064;28;20290;-74
2020/12/14 10:54:45;;;;;;;9.90;5.75;;;8.70;99.90;;;;;;5035874;28;20700;-74
2020/12/14 10:57:12;;;;;;;6.68;5.22;;;8.80;99.90;;;;;;5036622;28;20207;-74
2020/12/14 10:59:38;;;;;;;10.38;5.38;;;8.80;99.90;;;;;;5037446;28;20210;-74
2020/12/14 11:02:04;;;;;;;10.70;6.20;;;8.90;99.90;;;;;;5039696;28;20276;-74
2020/12/14 11:04:31;;;;;;;8.68;5.20;;;8.90;99.90;;;;;;5036542;28;20319;-74
2020/12/14 11:06:58;;;;;;;7.55;4.82;;;9.00;99.90;;;;;;5036430;28;20200;-75
2020/12/14 11:09:24;;;;;;;8.20;5.25;;;9.10;99.90;;;;;;5036490;28;20556;-74
2020/12/14 11:11:51;;;;;;;8.40;5.40;;;9.10;99.90;;;;;;5035452;28;20224;-75
2020/12/14 11:14:17;;;;;;;9.07;5.15;;;9.20;99.90;;;;;;5036339;28;20616;-74
2020/12/14 11:16:45;;;;;;;8.95;5.20;;;9.30;99.90;;;;;;5035889;28;20200;-74
2020/12/14 11:19:11;;;;;;;8.60;5.25;;;9.30;99.90;;;;;;5036260;28;20296;-75
2020/12/14 11:21:38;;;;;;;8.50;5.10;;;9.40;99.90;;;;;;5036220;28;20200;-74
2020/12/14 11:24:05;;;;;;;9.15;6.05;;;9.30;99.90;;;;;;5036155;28;20311;-74
2020/12/14 11:26:31;;;;;;;9.40;5.75;;;9.40;99.90;;;;;;5036117;28;20287;-74
2020/12/14 11:28:58;;;;;;;9.18;5.03;;;9.40;99.90;;;;;;5036239;28;20286;-75
2020/12/14 11:31:25;;;;;;;9.20;5.80;;;9.50;99.90;;;;;;5035851;28;20228;-75
2020/12/14 11:33:51;;;;;;;7.57;5.35;;;9.60;99.90;;;;;;5035366;28;20224;-74
2020/12/14 11:36:23;;;;;;;12.55;6.28;;;9.60;99.90;;;;;;5035435;28;20215;-74
2020/12/14 11:38:49;;;;;;;5.53;4.88;;;9.50;99.90;;;;;;5035687;28;20204;-74
2020/12/14 11:41:16;;;;;;;7.60;6.00;;;9.50;99.90;;;;;;5035417;28;20210;-75
2020/12/14 11:43:42;;;;;;;7.65;5.70;;;9.50;99.90;;;;;;5035389;28;20221;-74
2020/12/14 11:46:09;;;;;;;7.57;5.80;;;9.50;99.90;;;;;;5035567;28;20204;-74
2020/12/14 11:48:35;;;;;;;8.10;5.60;;;9.50;99.90;;;;;;5035637;28;20294;-74
2020/12/14 11:51:02;;;;;;;13.38;5.75;;;9.60;99.90;;;;;;5034491;28;20223;-74
2020/12/14 11:53:28;;;;;;;9.90;6.30;;;9.60;99.90;;;;;;5035676;28;20220;-75
2020/12/14 11:55:54;;;;;;;9.50;6.10;;;9.60;99.90;;;;;;5035167;28;20222;-74
2020/12/14 11:58:20;;;;;;;8.75;5.93;;;9.70;99.90;;;;;;5035404;28;20206;-74
2020/12/14 12:00:47;;;;;;;8.55;5.80;;;9.70;99.90;;;;;;5034405;28;20202;-74
2020/12/14 12:03:14;;;;;;;10.27;6.35;;;9.70;99.90;;;;;;5034206;28;20728;-74
2020/12/14 12:05:40;;;;;;;8.40;6.15;;;9.80;99.90;;;;;;5034191;28;20679;-74
2020/12/14 12:08:06;;;;;;;9.57;6.32;;;9.90;99.90;;;;;;5034263;28;20210;-74
2020/12/14 12:10:33;;;;;;;9.93;6.03;;;10.00;99.90;;;;;;5034187;28;20559;-74
2020/12/14 12:13:00;;;;;;;7.55;5.97;;;10.10;99.90;;;;;;5034389;28;20678;-74
2020/12/14 12:15:26;;;;;;;11.23;6.72;;;10.10;99.90;;;;;;5034112;28;20210;-74
2020/12/14 12:17:53;;;;;;;10.50;6.75;;;10.30;99.90;;;;;;5034352;28;20208;-74
2020/12/14 12:20:20;;;;;;;9.52;6.25;;;10.30;99.90;;;;;;5034143;28;20196;-74
2020/12/14 12:22:47;;;;;;;9.80;6.65;;;10.40;99.90;;;;;;5034025;28;20255;-74
2020/12/14 12:25:14;;;;;;;13.88;6.43;;;10.50;99.90;;;;;;5034046;28;20207;-74
2020/12/14 12:27:40;;;;;;;11.93;6.15;;;10.50;99.90;;;;;;5034138;28;20607;-74
2020/12/14 12:30:07;;;;;;;10.23;6.60;;;10.50;99.90;;;;;;5034588;28;20210;-74
2020/12/14 12:32:33;;;;;;;9.93;6.18;;;10.60;99.90;;;;;;5034243;28;20235;-74
2020/12/14 12:34:59;;;;;;;8.80;6.65;;;10.60;99.90;;;;;;5034720;28;20208;-74
2020/12/14 12:37:27;;;;;;;10.35;6.00;;;10.70;99.90;;;;;;5034698;28;20209;-74
2020/12/14 12:39:53;;;;;;;12.15;7.60;;;10.80;99.90;;;;;;5034535;28;20204;-74
2020/12/14 12:42:19;;;;;;;8.45;6.10;;;10.80;99.90;;;;;;5034436;28;20200;-74
2020/12/14 12:44:45;;;;;;;8.50;6.28;;;10.80;99.90;;;;;;5034757;28;20207;-74
2020/12/14 12:47:12;;;;;;;7.75;6.20;;;10.90;99.90;;;;;;5033884;28;20207;-74
2020/12/14 12:49:38;;;;;;;9.20;6.40;;;10.90;99.90;;;;;;5034917;28;20203;-74
2020/12/14 12:52:04;;;;;;;8.35;6.05;;;11.00;99.90;;;;;;5035248;28;20243;-74
2020/12/14 12:54:32;;;;;;;8.35;6.07;;;11.10;99.90;;;;;;5035568;28;20246;-73
2020/12/14 12:57:02;;;;;;;7.22;5.65;;;11.20;99.90;;;;;;5035785;28;20204;-74
2020/12/14 12:59:28;;;;;;;9.77;5.88;;;11.30;99.90;;;;;;5035566;28;20214;-74
2020/12/14 13:01:55;;;;;;;8.48;5.60;;;11.30;99.90;;;;;;5036743;28;20303;-74